Greater Peoria Regional Airport
KPIA : rendu visible

Aérodrome :











RETROUVEZ-NOUS SUR...

 
LOGIN :

S'inscrire | Disclaimer

   EN    FR    IT 

 









Légende :    VFR   VFR Marginal   IFR   IFR Intensif   IFR Très Intensif
Visi : 
Plafond : 
>= 8 km
>= 3000ft
5 à 8 km
1000 à 3000 ft
1500m à 5 km
500 à 1000 ft
800 à 1500m
200 à 500 ft
< 800m
< 200 ft
Symboles :   Orages  Brouillard  Fortes neiges  Fortes précipitations  Vent > 20 kt






- Altitude de l'aérodrome : 660 ft
- Code IATA : PIA


KPIA - Greater Peoria Regional

DERNIER METAR :
  • 281154Z 21005KT 8SM OVC006 21/19 A2987 RMK AO2 CIG 006V010 SLP112 T02060189 10211 20206 53005

METARs EXPIRÉS :
  • 281054Z 20006KT 10SM OVC006 21/19 A2987 RMK AO2 SLP108 T02060189
  • 280954Z 19006KT 8SM OVC007 21/18 A2986 RMK AO2 SLP107 T02060183
  • 280913Z 16006KT 9SM BKN009 OVC014 21/18 A2986 RMK AO2 CIG 007V011 T02060183
  • 280906Z 16006KT 9SM OVC011 21/18 A2986 RMK AO2 CIG 007V013 T02060183

TAF KPIA
Valide du 28 à 12h jusqu'au 29 à 12h UTC


281133Z 2812/2912 19007KT P6SM VCSH BKN012
TEMPO 2812/2814 OVC007
FM281600 22010KT P6SM SCT025 BKN060
FM282000 25009KT P6SM VCTS BKN040CB
FM282300 29007KT 4SM -SHRA VCTS OVC030CB
FM290200 33007KT P6SM VCSH OVC050
FM290800 34007KT P6SM BKN100
FIR KZAU / Amérique du Nord



MET'MAP, la Météo Aéronautique d'un coup d'oeil ! - Copyright ORBIFLY Décembre 2007 - Disclaimer

ORBIFLY MET'MAP TEAM :

Programmation & Développement : Alexandra Zaïnal
Sur une idée originale de : Baudouin d'Aumeries
Assistance à la programmation : Marc-Olivier Méhu
Soutien technique & logistique : Manuel Goepfert

Contact : metmap@orbifly.com




SOURCES & CREDITS :

   NOAA       Earth
Advisory